createdAt,value
2016-03-20T00:00:49.336Z,954.82
2016-03-20T00:01:49.354Z,954.79
2016-03-20T00:02:49.357Z,954.8
2016-03-20T00:03:49.376Z,954.77
2016-03-20T00:04:49.394Z,954.74
2016-03-20T00:05:49.397Z,954.76
2016-03-20T00:06:49.414Z,954.75
2016-03-20T00:07:49.417Z,954.73
2016-03-20T00:08:49.435Z,954.75
2016-03-20T00:09:49.453Z,954.74
2016-03-20T00:10:49.456Z,954.73
2016-03-20T00:11:49.475Z,954.67
2016-03-20T00:12:49.477Z,954.73
2016-03-20T00:13:49.496Z,954.7
2016-03-20T00:14:49.513Z,954.7
2016-03-20T00:15:49.517Z,954.73
2016-03-20T00:16:49.535Z,954.71
2016-03-20T00:17:49.538Z,954.66
2016-03-20T00:18:49.556Z,954.69
2016-03-20T00:19:49.560Z,954.66
2016-03-20T00:20:49.577Z,954.69
2016-03-20T00:21:49.596Z,954.69
2016-03-20T00:22:49.598Z,954.7
2016-03-20T00:23:49.616Z,954.67
2016-03-20T00:24:49.634Z,954.69
2016-03-20T00:25:49.653Z,954.69
2016-03-20T00:26:49.656Z,954.69
2016-03-20T00:27:49.659Z,954.68
2016-03-20T00:28:49.676Z,954.66
2016-03-20T00:29:49.679Z,954.67
2016-03-20T00:30:49.698Z,954.63
2016-03-20T00:31:49.716Z,954.62
2016-03-20T00:32:49.734Z,954.63
2016-03-20T00:33:49.737Z,954.63
2016-03-20T00:34:49.755Z,954.6
2016-03-20T00:35:49.758Z,954.61
2016-03-20T00:36:49.776Z,954.62
2016-03-20T00:37:49.779Z,954.58
2016-03-20T00:38:49.797Z,954.58
2016-03-20T00:39:49.800Z,954.56
2016-03-20T00:40:49.819Z,954.55
2016-03-20T00:41:49.822Z,954.57
2016-03-20T00:42:49.839Z,954.54
2016-03-20T00:43:49.858Z,954.52
2016-03-20T00:44:49.876Z,954.55
2016-03-20T00:45:49.894Z,954.53
2016-03-20T00:46:49.897Z,954.5
2016-03-20T00:47:49.915Z,954.49
2016-03-20T00:48:49.919Z,954.48
2016-03-20T00:49:49.921Z,954.47
2016-03-20T00:50:49.939Z,954.42
2016-03-20T00:51:49.941Z,954.45
2016-03-20T00:52:49.960Z,954.4
2016-03-20T00:53:49.978Z,954.39
2016-03-20T00:54:49.996Z,954.4
2016-03-20T00:55:49.999Z,954.34
2016-03-20T00:56:50.002Z,954.33
2016-03-20T00:57:50.020Z,954.33
2016-03-20T00:58:50.023Z,954.36
2016-03-20T00:59:50.057Z,954.31
2016-03-20T01:00:50.060Z,954.33
2016-03-20T01:01:50.093Z,954.34
2016-03-20T01:02:50.096Z,954.33
2016-03-20T01:03:50.099Z,954.37
2016-03-20T01:04:50.101Z,954.33
2016-03-20T01:05:50.120Z,954.3
2016-03-20T01:06:50.139Z,954.32
2016-03-20T01:07:50.157Z,954.29
2016-03-20T01:08:50.159Z,954.28
2016-03-20T01:09:50.193Z,954.28
2016-03-20T01:10:50.181Z,954.26
2016-03-20T01:11:50.183Z,954.25
2016-03-20T01:12:50.217Z,954.23
2016-03-20T01:13:50.219Z,954.23
2016-03-20T01:14:50.222Z,954.22
2016-03-20T01:15:50.241Z,954.22
2016-03-20T01:16:50.243Z,954.23
2016-03-20T01:17:50.261Z,954.21
2016-03-20T01:18:50.280Z,954.24
2016-03-20T01:19:50.283Z,954.2
2016-03-20T01:20:50.301Z,954.18
2016-03-20T01:21:50.304Z,954.19
2016-03-20T01:22:50.337Z,954.17
2016-03-20T01:23:50.324Z,954.12
2016-03-20T01:24:50.343Z,954.08
2016-03-20T01:25:50.362Z,954.09
2016-03-20T01:26:50.365Z,954.06
2016-03-20T01:27:50.367Z,954.04
2016-03-20T01:28:50.385Z,954.03
2016-03-20T01:29:50.404Z,954.05
2016-03-20T01:30:50.407Z,954.03
2016-03-20T01:31:50.424Z,953.99
2016-03-20T01:32:50.443Z,954.01
2016-03-20T01:33:50.462Z,954.01
2016-03-20T01:34:50.464Z,953.96
2016-03-20T01:35:50.466Z,953.93
2016-03-20T01:36:50.500Z,953.94
2016-03-20T01:37:50.487Z,953.93
2016-03-20T01:38:50.506Z,953.86
2016-03-20T01:39:50.524Z,953.86
2016-03-20T01:40:50.528Z,953.86
2016-03-20T01:41:50.545Z,953.81
2016-03-20T01:42:50.548Z,953.79
2016-03-20T01:43:50.566Z,953.8
2016-03-20T01:44:50.569Z,953.82
2016-03-20T01:45:50.586Z,953.79
2016-03-20T01:46:50.605Z,953.81
2016-03-20T01:47:50.608Z,953.78
2016-03-20T01:48:50.626Z,953.79
2016-03-20T01:49:50.629Z,953.73
2016-03-20T01:50:50.647Z,953.73
2016-03-20T01:51:50.650Z,953.74
2016-03-20T01:52:50.669Z,953.71
2016-03-20T01:53:50.687Z,953.71
2016-03-20T01:54:50.690Z,953.67
2016-03-20T01:55:50.724Z,953.63
2016-03-20T01:56:50.773Z,953.66
2016-03-20T01:57:50.728Z,953.64
2016-03-20T01:58:50.747Z,953.6
2016-03-20T01:59:50.749Z,953.62
2016-03-20T02:00:50.784Z,953.62
2016-03-20T02:01:50.770Z,953.59
2016-03-20T02:02:50.789Z,953.63
2016-03-20T02:03:50.792Z,953.61
2016-03-20T02:04:50.810Z,953.62
2016-03-20T02:05:50.829Z,953.58
2016-03-20T02:06:50.831Z,953.64
2016-03-20T02:07:50.849Z,953.58
2016-03-20T02:08:50.852Z,953.52
2016-03-20T02:09:50.870Z,953.59
2016-03-20T02:10:50.873Z,953.58
2016-03-20T02:11:50.892Z,953.53
2016-03-20T02:12:50.895Z,953.55
2016-03-20T02:13:50.912Z,953.52
2016-03-20T02:14:50.931Z,953.52
2016-03-20T02:15:50.933Z,953.51
2016-03-20T02:16:50.936Z,953.53
2016-03-20T02:17:50.955Z,953.53
2016-03-20T02:18:50.972Z,953.5
2016-03-20T02:19:50.991Z,953.47
2016-03-20T02:20:50.993Z,953.52
2016-03-20T02:21:51.012Z,953.5
2016-03-20T02:22:51.015Z,953.55
2016-03-20T02:23:51.033Z,953.51
2016-03-20T02:24:51.036Z,953.52
2016-03-20T02:25:51.054Z,953.54
2016-03-20T02:26:51.057Z,953.5
2016-03-20T02:27:51.075Z,953.51
2016-03-20T02:28:51.077Z,953.53
2016-03-20T02:29:51.096Z,953.52
2016-03-20T02:30:51.099Z,953.49
2016-03-20T02:31:51.132Z,953.53
2016-03-20T02:32:51.135Z,953.49
2016-03-20T02:33:51.154Z,953.49
2016-03-20T02:34:51.156Z,953.48
2016-03-20T02:35:51.159Z,953.49
2016-03-20T02:36:51.178Z,953.45
2016-03-20T02:37:51.196Z,953.42
2016-03-20T02:38:51.198Z,953.45
2016-03-20T02:39:51.217Z,953.41
2016-03-20T02:40:51.220Z,953.36
2016-03-20T02:41:51.237Z,953.34
2016-03-20T02:42:51.256Z,953.33
2016-03-20T02:43:51.258Z,953.36
2016-03-20T02:44:51.261Z,953.37
2016-03-20T02:45:51.280Z,953.33
2016-03-20T02:46:51.282Z,953.32
2016-03-20T02:47:51.301Z,953.31
2016-03-20T02:48:51.319Z,953.32
2016-03-20T02:49:51.322Z,953.34
2016-03-20T02:50:51.340Z,953.34
2016-03-20T02:51:51.343Z,953.33
2016-03-20T02:52:51.361Z,953.33
2016-03-20T02:53:51.363Z,953.32
2016-03-20T02:54:51.382Z,953.32
2016-03-20T02:55:51.400Z,953.35
2016-03-20T02:56:51.403Z,953.31
2016-03-20T02:57:51.405Z,953.3
2016-03-20T02:58:51.424Z,953.31
2016-03-20T02:59:51.442Z,953.32
2016-03-20T03:00:51.446Z,953.31
2016-03-20T03:01:51.463Z,953.31
2016-03-20T03:02:51.481Z,953.39
2016-03-20T03:03:51.485Z,953.36
2016-03-20T03:04:51.487Z,953.36
2016-03-20T03:05:51.506Z,953.36
2016-03-20T03:06:51.514Z,953.32
2016-03-20T03:07:51.533Z,953.36
2016-03-20T03:08:51.536Z,953.35
2016-03-20T03:09:51.555Z,953.33
2016-03-20T03:10:51.557Z,953.36
2016-03-20T03:11:51.575Z,953.32
2016-03-20T03:12:51.578Z,953.38
2016-03-20T03:13:51.596Z,953.36
2016-03-20T03:14:51.599Z,953.36
2016-03-20T03:15:51.617Z,953.37
2016-03-20T03:16:51.651Z,953.39
2016-03-20T03:17:51.638Z,953.37
2016-03-20T03:18:51.657Z,953.39
2016-03-20T03:19:51.659Z,953.36
2016-03-20T03:20:51.677Z,953.36
2016-03-20T03:21:51.680Z,953.34
2016-03-20T03:22:51.698Z,953.34
2016-03-20T03:23:51.717Z,953.34
2016-03-20T03:24:51.720Z,953.33
2016-03-20T03:25:51.722Z,953.3
2016-03-20T03:26:51.741Z,953.31
2016-03-20T03:27:51.759Z,953.29
2016-03-20T03:28:51.762Z,953.29
2016-03-20T03:29:51.779Z,953.29
2016-03-20T03:30:51.782Z,953.25
2016-03-20T03:31:51.800Z,953.3
2016-03-20T03:32:51.804Z,953.33
2016-03-20T03:33:51.822Z,953.27
2016-03-20T03:34:51.825Z,953.34
2016-03-20T03:35:51.842Z,953.36
2016-03-20T03:36:51.861Z,953.37
2016-03-20T03:37:51.864Z,953.38
2016-03-20T03:38:51.883Z,953.38
2016-03-20T03:39:51.885Z,953.35
2016-03-20T03:40:51.902Z,953.38
2016-03-20T03:41:51.906Z,953.35
2016-03-20T03:42:51.924Z,953.42
2016-03-20T03:43:51.942Z,953.38
2016-03-20T03:44:51.944Z,953.41
2016-03-20T03:45:51.947Z,953.39
2016-03-20T03:46:51.966Z,953.4
2016-03-20T03:47:51.985Z,953.39
2016-03-20T03:48:52.002Z,953.33
2016-03-20T03:49:52.005Z,953.36
2016-03-20T03:50:52.008Z,953.36
2016-03-20T03:51:52.042Z,953.34
2016-03-20T03:52:52.046Z,953.31
2016-03-20T03:53:52.048Z,953.36
2016-03-20T03:54:52.066Z,953.32
2016-03-20T03:55:52.068Z,953.33
2016-03-20T03:56:52.087Z,953.38
2016-03-20T03:57:52.090Z,953.32
2016-03-20T03:58:52.107Z,953.32
2016-03-20T03:59:52.110Z,953.29
2016-03-20T04:00:52.128Z,953.31
2016-03-20T04:01:52.132Z,953.32
2016-03-20T04:02:52.155Z,953.33
2016-03-20T04:03:52.158Z,953.31
2016-03-20T04:04:52.175Z,953.31
2016-03-20T04:05:52.178Z,953.3
2016-03-20T04:06:52.197Z,953.3
2016-03-20T04:07:52.215Z,953.26
2016-03-20T04:08:52.218Z,953.28
2016-03-20T04:09:52.220Z,953.26
2016-03-20T04:10:52.269Z,953.26
2016-03-20T04:11:52.258Z,953.29
2016-03-20T04:12:52.260Z,953.3
2016-03-20T04:13:52.277Z,953.28
2016-03-20T04:14:52.281Z,953.31
2016-03-20T04:15:52.299Z,953.31
2016-03-20T04:16:52.301Z,953.29
2016-03-20T04:17:52.320Z,953.28
2016-03-20T04:18:52.338Z,953.28
2016-03-20T04:19:52.340Z,953.31
2016-03-20T04:20:52.360Z,953.3
2016-03-20T04:21:52.362Z,953.31
2016-03-20T04:22:52.380Z,953.26
2016-03-20T04:23:52.384Z,953.28
2016-03-20T04:24:52.401Z,953.24
2016-03-20T04:25:52.403Z,953.25
2016-03-20T04:26:52.423Z,953.24
2016-03-20T04:27:52.430Z,953.23
2016-03-20T04:28:52.420Z,953.23
2016-03-20T04:29:52.426Z,953.27
2016-03-20T04:30:52.416Z,953.25
2016-03-20T04:31:52.422Z,953.24
2016-03-20T04:32:52.418Z,953.28
2016-03-20T04:33:52.431Z,953.32
2016-03-20T04:34:52.462Z,953.29
2016-03-20T04:35:52.444Z,953.31
2016-03-20T04:36:52.442Z,953.31
2016-03-20T04:37:52.459Z,953.33
2016-03-20T04:38:52.460Z,953.32
2016-03-20T04:39:52.476Z,953.31
2016-03-20T04:40:52.493Z,953.27
2016-03-20T04:41:52.509Z,953.34
2016-03-20T04:42:52.511Z,953.33
2016-03-20T04:43:52.513Z,953.36
2016-03-20T04:44:52.531Z,953.36
2016-03-20T04:45:52.548Z,953.38
2016-03-20T04:46:52.550Z,953.35
2016-03-20T04:47:52.553Z,953.34
2016-03-20T04:48:52.571Z,953.4
2016-03-20T04:49:52.589Z,953.4
2016-03-20T04:50:52.592Z,953.36
2016-03-20T04:51:52.611Z,953.4
2016-03-20T04:52:52.613Z,953.4
2016-03-20T04:53:52.631Z,953.38
2016-03-20T04:54:52.634Z,953.38
2016-03-20T04:55:52.652Z,953.38
2016-03-20T04:56:52.656Z,953.38
2016-03-20T04:57:52.673Z,953.41
2016-03-20T04:58:52.707Z,953.38
2016-03-20T04:59:52.695Z,953.39
2016-03-20T05:00:52.713Z,953.38
2016-03-20T05:01:52.715Z,953.37
2016-03-20T05:02:52.734Z,953.39
2016-03-20T05:03:52.736Z,953.38
2016-03-20T05:04:52.755Z,953.39
2016-03-20T05:05:52.774Z,953.36
2016-03-20T05:06:52.776Z,953.36
2016-03-20T05:07:52.778Z,953.39
2016-03-20T05:08:52.797Z,953.41
2016-03-20T05:09:52.830Z,953.41
2016-03-20T05:10:52.817Z,953.39
2016-03-20T05:11:52.836Z,953.41
2016-03-20T05:12:52.838Z,953.43
2016-03-20T05:13:52.857Z,953.37
2016-03-20T05:14:52.860Z,953.42
2016-03-20T05:15:52.878Z,953.41
2016-03-20T05:16:52.896Z,953.43
2016-03-20T05:17:52.899Z,953.44
2016-03-20T05:18:52.917Z,953.42
2016-03-20T05:19:52.920Z,953.4
2016-03-20T05:20:52.939Z,953.4
2016-03-20T05:21:52.942Z,953.43
2016-03-20T05:22:52.959Z,953.42
2016-03-20T05:23:52.962Z,953.43
2016-03-20T05:24:52.981Z,953.36
2016-03-20T05:25:52.998Z,953.35
2016-03-20T05:26:53.001Z,953.38
2016-03-20T05:27:53.003Z,953.36
2016-03-20T05:28:53.022Z,953.3
2016-03-20T05:29:53.024Z,953.36
2016-03-20T05:30:53.044Z,953.29
2016-03-20T05:31:53.061Z,953.3
2016-03-20T05:32:53.064Z,953.32
2016-03-20T05:33:53.083Z,953.32
2016-03-20T05:34:53.085Z,953.34
2016-03-20T05:35:53.104Z,953.39
2016-03-20T05:36:53.138Z,953.36
2016-03-20T05:37:53.124Z,953.36
2016-03-20T05:38:53.143Z,953.38
2016-03-20T05:39:53.146Z,953.39
2016-03-20T05:40:53.163Z,953.42
2016-03-20T05:41:53.167Z,953.4
2016-03-20T05:42:53.169Z,953.39
2016-03-20T05:43:53.187Z,953.39
2016-03-20T05:44:53.207Z,953.44
2016-03-20T05:45:53.209Z,953.4
2016-03-20T05:46:53.226Z,953.41
2016-03-20T05:47:53.229Z,953.41
2016-03-20T05:48:53.248Z,953.41
2016-03-20T05:49:53.251Z,953.48
2016-03-20T05:50:53.270Z,953.46
2016-03-20T05:51:53.287Z,953.49
2016-03-20T05:52:53.290Z,953.49
2016-03-20T05:53:53.309Z,953.52
2016-03-20T05:54:53.311Z,953.53
2016-03-20T05:55:53.328Z,953.49
2016-03-20T05:56:53.331Z,953.5
2016-03-20T05:57:53.350Z,953.5
2016-03-20T05:58:53.369Z,953.56
2016-03-20T05:59:53.387Z,953.56
2016-03-20T06:00:53.374Z,953.55
2016-03-20T06:01:53.392Z,953.54
2016-03-20T06:02:53.411Z,953.5
2016-03-20T06:03:53.413Z,953.53
2016-03-20T06:04:53.432Z,953.57
2016-03-20T06:05:53.449Z,953.59
2016-03-20T06:06:53.453Z,953.61
2016-03-20T06:07:53.455Z,953.62
2016-03-20T06:08:53.474Z,953.65
2016-03-20T06:09:53.477Z,953.62
2016-03-20T06:10:53.494Z,953.61
2016-03-20T06:11:53.513Z,953.61
2016-03-20T06:12:53.515Z,953.61
2016-03-20T06:13:53.534Z,953.62
2016-03-20T06:14:53.536Z,953.57
2016-03-20T06:15:53.555Z,953.63
2016-03-20T06:16:53.573Z,953.55
2016-03-20T06:17:53.576Z,953.59
2016-03-20T06:18:53.595Z,953.55
2016-03-20T06:19:53.597Z,953.58
2016-03-20T06:20:53.615Z,953.59
2016-03-20T06:21:53.618Z,953.56
2016-03-20T06:22:53.636Z,953.64
2016-03-20T06:23:53.639Z,953.61
2016-03-20T06:24:53.656Z,953.61
2016-03-20T06:25:53.659Z,953.63
2016-03-20T06:26:53.678Z,953.63
2016-03-20T06:27:53.681Z,953.65
2016-03-20T06:28:53.714Z,953.64
2016-03-20T06:29:53.702Z,953.66
2016-03-20T06:30:53.720Z,953.68
2016-03-20T06:31:53.739Z,953.69
2016-03-20T06:32:53.742Z,953.67
2016-03-20T06:33:53.760Z,953.7
2016-03-20T06:34:53.778Z,953.69
2016-03-20T06:35:53.781Z,953.67
2016-03-20T06:36:53.783Z,953.72
2016-03-20T06:37:53.801Z,953.7
2016-03-20T06:38:53.804Z,953.69
2016-03-20T06:39:53.822Z,953.72
2016-03-20T06:40:53.825Z,953.69
2016-03-20T06:41:53.843Z,953.67
2016-03-20T06:42:53.846Z,953.67
2016-03-20T06:43:53.865Z,953.68
2016-03-20T06:44:53.883Z,953.65
2016-03-20T06:45:53.885Z,953.65
2016-03-20T06:46:53.904Z,953.69
2016-03-20T06:47:53.907Z,953.63
2016-03-20T06:48:53.926Z,953.68
2016-03-20T06:49:53.928Z,953.68
2016-03-20T06:50:53.945Z,953.7
2016-03-20T06:51:53.949Z,953.72
2016-03-20T06:52:53.967Z,953.73
2016-03-20T06:53:53.985Z,953.69
2016-03-20T06:54:53.988Z,953.67
2016-03-20T06:55:54.006Z,953.73
2016-03-20T06:56:54.009Z,953.72
2016-03-20T06:57:54.028Z,953.72
2016-03-20T06:58:54.045Z,953.7
2016-03-20T06:59:54.048Z,953.73
2016-03-20T07:00:54.051Z,953.75
2016-03-20T07:01:54.069Z,953.71
2016-03-20T07:02:54.228Z,953.75
2016-03-20T07:03:54.106Z,953.71
2016-03-20T07:04:54.108Z,953.74
2016-03-20T07:05:54.111Z,953.74
2016-03-20T07:06:54.130Z,953.72
2016-03-20T07:07:54.132Z,953.72
2016-03-20T07:08:54.150Z,953.72
2016-03-20T07:09:54.153Z,953.67
2016-03-20T07:10:54.171Z,953.71
2016-03-20T07:11:54.175Z,953.7
2016-03-20T07:12:54.193Z,953.71
2016-03-20T07:13:54.211Z,953.72
2016-03-20T07:14:54.213Z,953.71
2016-03-20T07:15:54.232Z,953.71
2016-03-20T07:16:54.235Z,953.69
2016-03-20T07:17:54.253Z,953.73
2016-03-20T07:18:54.271Z,953.7
2016-03-20T07:19:54.273Z,953.71
2016-03-20T07:20:54.293Z,953.72
2016-03-20T07:21:54.498Z,953.71
2016-03-20T07:22:54.313Z,953.73
2016-03-20T07:23:54.315Z,953.75
2016-03-20T07:24:54.334Z,953.78
2016-03-20T07:25:54.337Z,953.79
2016-03-20T07:26:54.355Z,953.76
2016-03-20T07:27:54.358Z,953.71
2016-03-20T07:28:54.376Z,953.76
2016-03-20T07:29:54.378Z,953.76
2016-03-20T07:30:54.428Z,953.74
2016-03-20T07:31:54.416Z,953.76
2016-03-20T07:32:54.418Z,953.78
2016-03-20T07:33:54.437Z,953.77
2016-03-20T07:34:54.439Z,953.76
2016-03-20T07:35:54.457Z,953.74
2016-03-20T07:36:54.476Z,953.73
2016-03-20T07:37:54.481Z,953.74
2016-03-20T07:38:54.483Z,953.71
2016-03-20T07:39:54.503Z,953.74
2016-03-20T07:40:54.521Z,953.75
2016-03-20T07:41:54.523Z,953.7
2016-03-20T07:42:54.542Z,953.73
2016-03-20T07:43:54.544Z,953.74
2016-03-20T07:44:54.563Z,953.73
2016-03-20T07:45:54.566Z,953.7
2016-03-20T07:46:54.583Z,953.74
2016-03-20T07:47:54.586Z,953.69
2016-03-20T07:48:54.605Z,953.71
2016-03-20T07:49:54.607Z,953.73
2016-03-20T07:50:54.626Z,953.74
2016-03-20T07:51:54.644Z,953.74
2016-03-20T07:52:54.678Z,953.74
2016-03-20T07:53:54.666Z,953.74
2016-03-20T07:54:54.668Z,953.75
2016-03-20T07:55:54.686Z,953.78
2016-03-20T07:56:54.705Z,953.79
2016-03-20T07:57:54.723Z,953.8
2016-03-20T07:58:54.726Z,953.82
2016-03-20T07:59:54.728Z,953.81
2016-03-20T08:00:54.746Z,953.78
2016-03-20T08:01:54.748Z,953.82
2016-03-20T08:02:54.768Z,953.84
2016-03-20T08:03:54.786Z,953.83
2016-03-20T08:04:54.788Z,953.89
2016-03-20T08:05:54.807Z,953.9
2016-03-20T08:06:54.809Z,953.91
2016-03-20T08:07:54.828Z,953.94
2016-03-20T08:08:54.830Z,953.93
2016-03-20T08:09:54.849Z,953.9
2016-03-20T08:10:54.852Z,953.89
2016-03-20T08:11:54.869Z,953.88
2016-03-20T08:12:54.872Z,953.9
2016-03-20T08:13:54.891Z,953.9
2016-03-20T08:14:54.909Z,953.93
2016-03-20T08:15:54.927Z,953.92
2016-03-20T08:16:54.930Z,953.9
2016-03-20T08:17:54.932Z,953.95
2016-03-20T08:18:54.951Z,953.94
2016-03-20T08:19:54.954Z,953.95
2016-03-20T08:20:54.972Z,953.94
2016-03-20T08:21:54.974Z,953.97
2016-03-20T08:22:54.993Z,953.92
2016-03-20T08:23:55.012Z,953.92
2016-03-20T08:24:55.014Z,953.92
2016-03-20T08:25:55.032Z,953.95
2016-03-20T08:26:55.035Z,953.92
2016-03-20T08:27:55.053Z,953.95
2016-03-20T08:28:55.057Z,953.94
2016-03-20T08:29:55.074Z,953.9
2016-03-20T08:30:55.093Z,953.91
2016-03-20T08:31:55.095Z,953.89
2016-03-20T08:32:55.114Z,953.93
2016-03-20T08:33:55.117Z,953.93
2016-03-20T08:34:55.134Z,953.93
2016-03-20T08:35:55.169Z,953.9
2016-03-20T08:36:55.156Z,953.92
2016-03-20T08:37:55.175Z,953.9
2016-03-20T08:38:55.177Z,953.9
2016-03-20T08:39:55.195Z,953.87
2016-03-20T08:40:55.214Z,953.87
2016-03-20T08:41:55.216Z,953.88
2016-03-20T08:42:55.250Z,953.88
2016-03-20T08:43:55.236Z,953.87
2016-03-20T08:44:55.255Z,953.88
2016-03-20T08:45:55.258Z,953.9
2016-03-20T08:46:55.277Z,953.92
2016-03-20T08:47:55.294Z,953.92
2016-03-20T08:48:55.313Z,953.89
2016-03-20T08:49:55.316Z,953.93
2016-03-20T08:50:55.334Z,953.93
2016-03-20T08:51:55.337Z,953.91
2016-03-20T08:52:55.355Z,953.94
2016-03-20T08:53:55.357Z,953.89
2016-03-20T08:54:55.376Z,953.87
2016-03-20T08:55:55.394Z,953.89
2016-03-20T08:56:55.413Z,953.88
2016-03-20T08:57:55.415Z,953.87
2016-03-20T08:58:55.418Z,953.87
2016-03-20T08:59:55.437Z,953.84
2016-03-20T09:00:55.454Z,953.88
2016-03-20T09:01:55.457Z,953.86
2016-03-20T09:02:55.475Z,953.89
2016-03-20T09:03:55.557Z,953.86
2016-03-20T09:04:55.497Z,953.9
2016-03-20T09:05:55.514Z,953.88
2016-03-20T09:06:55.517Z,953.9
2016-03-20T09:07:55.536Z,953.89
2016-03-20T09:08:55.554Z,953.91
2016-03-20T09:09:55.556Z,953.88
2016-03-20T09:10:55.575Z,953.84
2016-03-20T09:11:55.594Z,953.85
2016-03-20T09:12:55.597Z,953.85
2016-03-20T09:13:55.614Z,953.84
2016-03-20T09:14:55.617Z,953.84
2016-03-20T09:15:55.636Z,953.84
2016-03-20T09:16:55.654Z,953.82
2016-03-20T09:17:55.657Z,953.81
2016-03-20T09:18:55.675Z,953.77
2016-03-20T09:19:55.693Z,953.8
2016-03-20T09:20:55.696Z,953.79
2016-03-20T09:21:55.714Z,953.8
2016-03-20T09:22:55.732Z,953.78
2016-03-20T09:23:55.735Z,953.79
2016-03-20T09:24:55.754Z,953.78
2016-03-20T09:25:55.771Z,953.77
2016-03-20T09:26:55.774Z,953.82
2016-03-20T09:27:55.793Z,953.81
2016-03-20T09:28:55.811Z,953.75
2016-03-20T09:29:55.815Z,953.79
2016-03-20T09:30:55.832Z,953.79
2016-03-20T09:31:55.834Z,953.77
2016-03-20T09:32:55.854Z,953.74
2016-03-20T09:33:55.871Z,953.76
2016-03-20T09:34:55.873Z,953.74
2016-03-20T09:35:55.892Z,953.75
2016-03-20T09:36:55.911Z,953.73
2016-03-20T09:37:55.914Z,953.73
2016-03-20T09:38:55.932Z,953.73
2016-03-20T09:39:55.950Z,953.71
2016-03-20T09:40:55.953Z,953.68
2016-03-20T09:41:55.987Z,953.71
2016-03-20T09:42:55.989Z,953.68
2016-03-20T09:43:55.991Z,953.69
2016-03-20T09:44:56.011Z,953.69
2016-03-20T09:45:56.028Z,953.67
2016-03-20T09:46:56.047Z,953.65
2016-03-20T09:47:56.066Z,953.66
2016-03-20T09:48:56.068Z,953.63
2016-03-20T09:49:56.071Z,953.68
2016-03-20T09:50:56.089Z,953.63
2016-03-20T09:51:56.108Z,953.6
2016-03-20T09:52:56.110Z,953.56
2016-03-20T09:53:56.129Z,953.61
2016-03-20T09:54:56.147Z,953.62
2016-03-20T09:55:56.165Z,953.57
2016-03-20T09:56:56.183Z,953.58
2016-03-20T09:57:56.186Z,953.59
2016-03-20T09:58:56.204Z,953.56
2016-03-20T09:59:56.223Z,953.55
2016-03-20T10:00:56.225Z,953.55
2016-03-20T10:01:56.275Z,953.59
2016-03-20T10:02:56.262Z,953.56
2016-03-20T10:03:56.265Z,953.56
2016-03-20T10:04:56.283Z,953.52
2016-03-20T10:05:56.301Z,953.52
2016-03-20T10:06:56.320Z,953.54
2016-03-20T10:07:56.322Z,953.56
2016-03-20T10:08:56.340Z,953.56
2016-03-20T10:09:56.358Z,953.52
2016-03-20T10:10:56.378Z,953.51
2016-03-20T10:11:56.380Z,953.5
2016-03-20T10:12:56.398Z,953.53
2016-03-20T10:13:56.417Z,953.54
2016-03-20T10:14:56.419Z,953.53
2016-03-20T10:15:56.453Z,953.51
2016-03-20T10:16:56.455Z,953.5
2016-03-20T10:17:56.474Z,953.47
2016-03-20T10:18:56.492Z,953.46
2016-03-20T10:19:56.494Z,953.46
2016-03-20T10:20:56.514Z,953.43
2016-03-20T10:21:56.532Z,953.41
2016-03-20T10:22:56.550Z,953.4
2016-03-20T10:23:56.569Z,953.41
2016-03-20T10:24:56.571Z,953.4
2016-03-20T10:25:56.590Z,953.41
2016-03-20T10:26:56.608Z,953.41
2016-03-20T10:27:56.626Z,953.44
2016-03-20T10:28:56.629Z,953.42
2016-03-20T10:29:56.647Z,953.43
2016-03-20T10:30:56.682Z,953.42
2016-03-20T10:31:56.684Z,953.38
2016-03-20T10:32:56.702Z,953.37
2016-03-20T10:33:56.705Z,953.36
2016-03-20T10:34:56.723Z,953.41
2016-03-20T10:35:56.742Z,953.39
2016-03-20T10:36:56.759Z,953.36
2016-03-20T10:37:56.779Z,953.34
2016-03-20T10:38:56.781Z,953.33
2016-03-20T10:39:56.798Z,953.33
2016-03-20T10:40:56.817Z,953.35
2016-03-20T10:41:56.836Z,953.34
2016-03-20T10:42:56.853Z,953.37
2016-03-20T10:43:56.872Z,953.38
2016-03-20T10:44:56.875Z,953.35
2016-03-20T10:45:56.894Z,953.33
2016-03-20T10:46:56.911Z,953.35
2016-03-20T10:47:56.945Z,953.31
2016-03-20T10:48:56.948Z,953.28
2016-03-20T10:49:56.966Z,953.27
2016-03-20T10:50:56.985Z,953.27
2016-03-20T10:51:57.019Z,953.31
2016-03-20T10:52:57.005Z,953.32
2016-03-20T10:53:57.025Z,953.33
2016-03-20T10:54:57.043Z,953.27
2016-03-20T10:55:57.060Z,953.24
2016-03-20T10:56:57.063Z,953.27
2016-03-20T10:57:57.082Z,953.24
2016-03-20T10:58:57.099Z,953.26
2016-03-20T10:59:57.118Z,953.27
2016-03-20T11:00:57.137Z,953.27
2016-03-20T11:01:57.155Z,953.24
2016-03-20T11:02:57.173Z,953.2
2016-03-20T11:03:57.192Z,953.14
2016-03-20T11:04:57.210Z,953.13
2016-03-20T11:05:57.228Z,953.1
2016-03-20T11:06:57.246Z,953.15
2016-03-20T11:07:57.248Z,953.1
2016-03-20T11:08:57.267Z,953.12
2016-03-20T11:09:57.287Z,953.12
2016-03-20T11:10:57.304Z,953.1
2016-03-20T11:11:57.322Z,953.1
2016-03-20T11:12:57.341Z,953.08
2016-03-20T11:13:57.359Z,953.1
2016-03-20T11:14:57.392Z,953.07
2016-03-20T11:15:57.395Z,953.06
2016-03-20T11:16:57.414Z,953.12
2016-03-20T11:17:57.433Z,953.12
2016-03-20T11:18:57.450Z,953.08
2016-03-20T11:19:57.469Z,953.11
2016-03-20T11:20:57.488Z,953.08
2016-03-20T11:21:57.521Z,953.1
2016-03-20T11:22:57.524Z,953.06
2016-03-20T11:23:57.542Z,953.03
2016-03-20T11:24:57.560Z,953.05
2016-03-20T11:25:57.580Z,953
2016-03-20T11:26:57.597Z,952.94
2016-03-20T11:27:57.616Z,952.94
2016-03-20T11:28:57.634Z,952.94
2016-03-20T11:29:57.652Z,952.98
2016-03-20T11:30:57.671Z,952.95
2016-03-20T11:31:57.688Z,952.96
2016-03-20T11:32:57.707Z,952.94
2016-03-20T11:33:57.726Z,952.92
2016-03-20T11:34:57.744Z,952.96
2016-03-20T11:35:57.762Z,952.94
2016-03-20T11:36:57.811Z,952.93
2016-03-20T11:37:57.830Z,952.94
2016-03-20T11:38:57.817Z,952.92
2016-03-20T11:39:57.834Z,952.92
2016-03-20T11:40:57.869Z,952.87
2016-03-20T11:41:57.887Z,952.89
2016-03-20T11:42:57.906Z,952.9
2016-03-20T11:43:57.925Z,952.87
2016-03-20T11:44:57.959Z,952.84
2016-03-20T11:45:57.961Z,952.85
2016-03-20T11:46:57.978Z,952.8
2016-03-20T11:47:57.997Z,952.81
2016-03-20T11:49:01.672Z,952.8
2016-03-20T11:49:58.050Z,952.8
2016-03-20T11:50:58.052Z,952.73
2016-03-20T11:51:58.086Z,952.73
2016-03-20T11:52:58.105Z,952.78
2016-03-20T11:53:58.122Z,952.71
2016-03-20T11:54:58.141Z,952.74
2016-03-20T11:55:58.159Z,952.71
2016-03-20T11:56:58.177Z,952.69
2016-03-20T11:57:58.227Z,952.68
2016-03-20T11:58:58.230Z,952.64
2016-03-20T11:59:58.249Z,952.6
2016-03-20T12:00:58.267Z,952.65
2016-03-20T12:01:58.285Z,952.64
2016-03-20T12:02:58.304Z,952.63
2016-03-20T12:03:58.322Z,952.62
2016-03-20T12:04:58.356Z,952.62
2016-03-20T12:05:58.373Z,952.58
2016-03-20T12:06:58.392Z,952.57
2016-03-20T12:07:58.410Z,952.59
2016-03-20T12:08:58.444Z,952.61
2016-03-20T12:09:58.463Z,952.61
2016-03-20T12:10:58.481Z,952.59
2016-03-20T12:11:58.500Z,952.57
2016-03-20T12:12:58.534Z,952.56
2016-03-20T12:13:58.552Z,952.53
2016-03-20T12:14:58.570Z,952.53
2016-03-20T12:15:58.588Z,952.52
2016-03-20T12:16:58.606Z,952.5
2016-03-20T12:17:58.625Z,952.5
2016-03-20T12:18:58.658Z,952.45
2016-03-20T12:19:58.677Z,952.47
2016-03-20T12:20:58.695Z,952.43
2016-03-20T12:21:58.714Z,952.41
2016-03-20T12:22:58.747Z,952.37
2016-03-20T12:23:58.766Z,952.37
2016-03-20T12:24:58.785Z,952.34
2016-03-20T12:25:58.802Z,952.35
2016-03-20T12:26:58.822Z,952.36
2016-03-20T12:27:58.855Z,952.32
2016-03-20T12:28:58.873Z,952.32
2016-03-20T12:29:58.908Z,952.3
2016-03-20T12:30:58.926Z,952.25
2016-03-20T12:31:58.943Z,952.25